Time;durP1;ratioP1;P1;durP2;ratioP2;P2;SDS_P1;SDS_P2;PMS_P1;PMS_P2;Temp;Humidity;BMP_temperature;BMP_pressure;BME280_temperature;BME280_humidity;BME280_pressure;Samples;Min_cycle;Max_cycle;Signal;HPM_P1;HPM_P2
2021/04/24 00:00:44;;;;;;;17.48;8.65;;;4.70;81.50;;;;;;5036405;28;20080;-52
2021/04/24 00:03:10;;;;;;;18.08;8.40;;;4.70;81.50;;;;;;4989885;28;20031;-52
2021/04/24 00:05:42;;;;;;;18.15;8.90;;;4.60;81.10;;;;;;4980670;28;20125;-53
2021/04/24 00:08:09;;;;;;;22.27;10.05;;;4.60;81.70;;;;;;4985203;28;20057;-53
2021/04/24 00:10:40;;;;;;;21.85;10.18;;;4.60;81.90;;;;;;4959789;28;20046;-51
2021/04/24 00:13:08;;;;;;;18.13;9.15;;;4.50;83.00;;;;;;4978926;28;20050;-51
2021/04/24 00:15:35;;;;;;;20.90;10.05;;;4.50;82.60;;;;;;4990365;28;20479;-53
2021/04/24 00:18:01;;;;;;;18.25;8.80;;;4.50;83.00;;;;;;4982538;28;20570;-54
2021/04/24 00:20:28;;;;;;;20.92;8.73;;;4.50;82.50;;;;;;4960622;28;20058;-53
2021/04/24 00:22:54;;;;;;;19.60;9.93;;;4.50;82.30;;;;;;4966834;28;20046;-52
2021/04/24 00:25:20;;;;;;;21.23;9.23;;;4.40;82.30;;;;;;4989311;28;20034;-52
2021/04/24 00:27:46;;;;;;;19.48;9.60;;;4.40;82.30;;;;;;4978482;28;20047;-52
2021/04/24 00:30:13;;;;;;;21.38;9.15;;;4.30;83.30;;;;;;4985346;28;20050;-54
2021/04/24 00:32:39;;;;;;;19.75;9.73;;;4.30;82.90;;;;;;4977120;28;20053;-51
2021/04/24 00:35:06;;;;;;;18.73;9.07;;;4.30;82.90;;;;;;4981002;28;20084;-54
2021/04/24 00:37:32;;;;;;;19.75;9.15;;;4.20;82.60;;;;;;4993707;28;20036;-51
2021/04/24 00:39:57;;;;;;;19.08;8.15;;;4.10;82.20;;;;;;4982857;28;20627;-54
2021/04/24 00:42:23;;;;;;;21.95;9.23;;;4.10;82.40;;;;;;4984465;28;20057;-52
2021/04/24 00:44:50;;;;;;;17.15;9.02;;;4.00;82.30;;;;;;4985384;28;20544;-49
2021/04/24 00:47:18;;;;;;;19.10;9.23;;;3.90;82.40;;;;;;4970810;28;20514;-52
2021/04/24 00:49:44;;;;;;;18.02;9.65;;;4.20;83.00;;;;;;4984056;28;20042;-53
2021/04/24 00:52:09;;;;;;;16.90;9.13;;;3.90;83.40;;;;;;4981821;28;20047;-51
2021/04/24 00:54:35;;;;;;;18.42;8.77;;;3.80;83.00;;;;;;4985517;28;20584;-53
2021/04/24 00:57:01;;;;;;;18.58;9.02;;;3.80;82.90;;;;;;4993271;28;20126;-50
2021/04/24 00:59:28;;;;;;;19.23;9.15;;;3.80;83.00;;;;;;4996246;28;20053;-52
2021/04/24 01:01:54;;;;;;;18.20;7.95;;;3.70;82.70;;;;;;5006255;28;20493;-53
2021/04/24 01:04:21;;;;;;;19.10;8.48;;;3.70;82.60;;;;;;5009967;28;20083;-51
2021/04/24 01:06:47;;;;;;;18.42;9.18;;;3.60;82.70;;;;;;4987614;28;20042;-51
2021/04/24 01:09:13;;;;;;;17.35;8.23;;;3.50;83.30;;;;;;4988191;28;20477;-52
2021/04/24 01:11:38;;;;;;;21.17;8.90;;;3.40;82.90;;;;;;5018884;28;20134;-51
2021/04/24 01:14:04;;;;;;;18.15;7.93;;;3.40;82.70;;;;;;4982921;28;20039;-50
2021/04/24 01:16:30;;;;;;;18.42;8.68;;;3.40;82.90;;;;;;4985830;28;20546;-49
2021/04/24 01:18:56;;;;;;;18.70;7.80;;;3.30;83.20;;;;;;4971597;28;20080;-53
2021/04/24 01:21:24;;;;;;;18.23;8.18;;;3.30;83.10;;;;;;4971681;28;20039;-53
2021/04/24 01:23:52;;;;;;;16.40;8.38;;;3.20;83.40;;;;;;4987425;28;20042;-49
2021/04/24 01:26:18;;;;;;;16.95;7.90;;;3.20;83.70;;;;;;4984081;28;20065;-51
2021/04/24 01:28:46;;;;;;;19.73;7.55;;;3.10;83.40;;;;;;4983010;28;20103;-48
2021/04/24 01:31:14;;;;;;;17.45;7.32;;;3.10;83.80;;;;;;4981349;28;20092;-51
2021/04/24 01:33:40;;;;;;;16.48;8.60;;;3.10;83.40;;;;;;4980367;28;20045;-51
2021/04/24 01:36:06;;;;;;;13.65;8.02;;;3.00;83.60;;;;;;4968071;28;20406;-52
2021/04/24 01:38:33;;;;;;;17.80;8.55;;;3.00;83.60;;;;;;4980326;28;20049;-53
2021/04/24 01:40:58;;;;;;;18.92;8.32;;;3.00;83.50;;;;;;4989433;28;20054;-52
2021/04/24 01:43:24;;;;;;;18.77;8.13;;;3.00;83.80;;;;;;4987257;28;20034;-53
2021/04/24 01:45:50;;;;;;;18.33;8.65;;;3.00;84.10;;;;;;4986356;28;20046;-51
2021/04/24 01:48:16;;;;;;;21.90;8.85;;;3.00;84.10;;;;;;4972131;28;20388;-53
2021/04/24 01:50:44;;;;;;;18.23;8.85;;;2.90;84.20;;;;;;4982503;28;20054;-54
2021/04/24 01:53:16;;;;;;;17.65;8.57;;;2.90;84.20;;;;;;4986688;28;20057;-50
2021/04/24 01:55:42;;;;;;;18.48;8.45;;;2.90;84.60;;;;;;4987016;28;20027;-52
2021/04/24 01:58:12;;;;;;;18.38;8.13;;;2.80;84.40;;;;;;4984602;28;20046;-52
2021/04/24 02:00:42;;;;;;;20.05;9.20;;;2.90;84.70;;;;;;4980411;28;20038;-53
2021/04/24 02:03:11;;;;;;;19.33;8.55;;;2.80;84.70;;;;;;4982050;28;20119;-53
2021/04/24 02:05:37;;;;;;;19.25;8.23;;;2.80;85.00;;;;;;4979107;28;20511;-52
2021/04/24 02:08:05;;;;;;;22.65;9.07;;;2.80;85.00;;;;;;4978486;28;20074;-50
2021/04/24 02:10:30;;;;;;;21.70;9.25;;;2.80;85.10;;;;;;4985021;28;20041;-51
2021/04/24 02:12:59;;;;;;;24.65;10.05;;;2.80;85.30;;;;;;4982417;28;20035;-53
2021/04/24 02:15:25;;;;;;;18.50;8.80;;;2.80;87.30;;;;;;4980913;28;20109;-51
2021/04/24 02:17:51;;;;;;;18.58;8.30;;;2.90;86.10;;;;;;4974180;28;20116;-52
2021/04/24 02:20:18;;;;;;;19.15;8.88;;;2.90;85.90;;;;;;4975035;28;20507;-51
2021/04/24 02:22:43;;;;;;;19.73;9.00;;;3.00;86.10;;;;;;4984538;28;20074;-50
2021/04/24 02:25:13;;;;;;;17.20;8.32;;;3.00;85.50;;;;;;4978481;28;20104;-51
2021/04/24 02:27:39;;;;;;;22.55;9.93;;;3.00;85.60;;;;;;4970257;28;20129;-52
2021/04/24 02:30:08;;;;;;;18.60;9.25;;;2.90;85.10;;;;;;4972978;28;20550;-49
2021/04/24 02:32:35;;;;;;;19.10;8.88;;;2.90;85.20;;;;;;4989894;28;20053;-53
2021/04/24 02:35:03;;;;;;;22.08;9.05;;;2.90;85.40;;;;;;4990251;28;20058;-50
2021/04/24 02:37:28;;;;;;;18.73;8.60;;;2.80;85.60;;;;;;4975656;28;20046;-52
2021/04/24 02:39:54;;;;;;;21.63;9.18;;;2.80;85.60;;;;;;4984289;28;20302;-49
2021/04/24 02:42:22;;;;;;;20.85;9.57;;;2.80;85.80;;;;;;4982719;28;20277;-50
2021/04/24 02:44:49;;;;;;;21.15;8.75;;;2.70;86.00;;;;;;4990717;28;20389;-49
2021/04/24 02:47:14;;;;;;;23.52;9.35;;;2.70;85.80;;;;;;4986831;28;20078;-52
2021/04/24 02:49:41;;;;;;;17.50;9.23;;;2.80;86.30;;;;;;4979725;28;20030;-53
2021/04/24 02:52:07;;;;;;;19.95;9.15;;;2.70;86.60;;;;;;4985135;28;20396;-51
2021/04/24 02:54:33;;;;;;;18.23;8.80;;;2.70;86.40;;;;;;4985399;28;20038;-54
2021/04/24 02:57:00;;;;;;;22.60;10.07;;;2.70;86.50;;;;;;4985454;28;20475;-50
2021/04/24 02:59:26;;;;;;;20.38;9.00;;;2.70;86.70;;;;;;4991243;28;20035;-52
2021/04/24 03:01:52;;;;;;;18.02;9.07;;;2.70;86.80;;;;;;4983990;28;20494;-49
2021/04/24 03:04:18;;;;;;;22.67;9.77;;;2.70;86.80;;;;;;4993745;28;20038;-48
2021/04/24 03:06:46;;;;;;;21.80;9.65;;;2.70;86.60;;;;;;5021449;28;20045;-53
2021/04/24 03:09:12;;;;;;;20.48;9.77;;;2.60;86.60;;;;;;5005867;28;20054;-50
2021/04/24 03:11:38;;;;;;;20.27;9.40;;;2.60;86.70;;;;;;4984538;28;20070;-52
2021/04/24 03:14:07;;;;;;;21.27;9.30;;;2.50;86.50;;;;;;4990991;28;20546;-51
2021/04/24 03:16:34;;;;;;;21.20;8.93;;;2.60;87.30;;;;;;5002969;28;20477;-53
2021/04/24 03:19:02;;;;;;;18.92;8.38;;;2.50;87.10;;;;;;4981543;28;20046;-52
2021/04/24 03:21:29;;;;;;;18.08;8.65;;;2.60;87.20;;;;;;4981915;28;20418;-53
2021/04/24 03:23:54;;;;;;;21.63;9.63;;;2.50;87.50;;;;;;4979439;28;20417;-49
2021/04/24 03:26:21;;;;;;;16.17;9.27;;;2.50;87.70;;;;;;4989713;28;20042;-48
2021/04/24 03:28:48;;;;;;;21.52;8.45;;;2.50;87.20;;;;;;4986120;28;20080;-54
2021/04/24 03:31:14;;;;;;;16.13;8.40;;;2.50;86.90;;;;;;4986676;28;20031;-51
2021/04/24 03:33:40;;;;;;;21.08;9.35;;;2.50;87.20;;;;;;4984603;28;20100;-54
2021/04/24 03:36:07;;;;;;;17.65;8.88;;;2.40;87.10;;;;;;4983148;28;20061;-52
2021/04/24 03:38:34;;;;;;;20.10;9.00;;;2.40;87.10;;;;;;4989021;28;20107;-52
2021/04/24 03:41:00;;;;;;;19.23;9.13;;;2.40;87.00;;;;;;4988915;28;20166;-53
2021/04/24 03:43:25;;;;;;;19.45;9.23;;;2.30;87.20;;;;;;4988253;28;20066;-49
2021/04/24 03:45:51;;;;;;;20.20;9.63;;;2.30;87.40;;;;;;4982361;28;20131;-50
2021/04/24 03:48:17;;;;;;;21.42;10.38;;;2.30;87.90;;;;;;4978258;28;20043;-52
2021/04/24 03:50:42;;;;;;;22.80;9.00;;;2.30;87.90;;;;;;4988627;28;20049;-49
2021/04/24 03:53:08;;;;;;;21.00;9.48;;;2.30;87.60;;;;;;4986077;28;20118;-49
2021/04/24 03:55:34;;;;;;;19.55;9.80;;;2.30;87.30;;;;;;4981394;28;20407;-51
2021/04/24 03:58:00;;;;;;;21.70;9.85;;;2.30;87.50;;;;;;4993970;28;20418;-51
2021/04/24 04:00:29;;;;;;;20.00;9.48;;;2.30;88.20;;;;;;5018400;28;20507;-52
2021/04/24 04:03:00;;;;;;;17.20;8.52;;;2.30;88.20;;;;;;4988184;28;20119;-52
2021/04/24 04:05:34;;;;;;;17.17;8.98;;;2.30;87.60;;;;;;4995235;28;20038;-52
2021/04/24 04:08:01;;;;;;;21.17;9.90;;;2.40;88.00;;;;;;4960530;28;20050;-53
2021/04/24 04:10:28;;;;;;;28.63;10.02;;;2.30;88.20;;;;;;4973576;28;20046;-49
2021/04/24 04:12:55;;;;;;;20.38;10.38;;;2.50;89.20;;;;;;4980194;28;20042;-49
2021/04/24 04:15:24;;;;;;;22.35;9.52;;;2.50;88.80;;;;;;4990332;28;20048;-50
2021/04/24 04:17:56;;;;;;;18.45;9.32;;;2.60;88.80;;;;;;4976232;28;20062;-50
2021/04/24 04:20:22;;;;;;;20.50;10.20;;;2.70;88.30;;;;;;4991204;28;20103;-49
2021/04/24 04:22:48;;;;;;;20.42;9.98;;;2.70;88.10;;;;;;4977464;28;20046;-51
2021/04/24 04:25:15;;;;;;;21.10;10.20;;;2.70;87.80;;;;;;4984162;28;20092;-51
2021/04/24 04:27:40;;;;;;;17.23;9.30;;;2.70;88.20;;;;;;4983668;28;20061;-52
2021/04/24 04:30:08;;;;;;;22.52;9.35;;;2.70;88.20;;;;;;4987374;28;20074;-49
2021/04/24 04:32:34;;;;;;;22.52;9.10;;;2.70;88.40;;;;;;4980694;28;20380;-49
2021/04/24 04:35:00;;;;;;;15.15;7.82;;;2.70;87.70;;;;;;4982763;28;20065;-52
2021/04/24 04:37:26;;;;;;;16.83;7.35;;;2.70;87.40;;;;;;4988305;28;20053;-49
2021/04/24 04:39:52;;;;;;;13.93;5.88;;;2.60;87.40;;;;;;4990116;28;20050;-51
2021/04/24 04:42:17;;;;;;;11.63;6.43;;;2.60;87.40;;;;;;4989722;28;20137;-50
2021/04/24 04:44:43;;;;;;;11.57;6.00;;;2.50;87.50;;;;;;4988012;28;20051;-49
2021/04/24 04:47:09;;;;;;;13.88;7.35;;;2.50;87.30;;;;;;4987955;28;20483;-53
2021/04/24 04:49:34;;;;;;;14.23;6.70;;;2.40;87.00;;;;;;4985058;28;20072;-50
2021/04/24 04:52:00;;;;;;;14.90;8.20;;;2.40;87.00;;;;;;4987901;28;20494;-50
2021/04/24 04:54:25;;;;;;;16.73;7.82;;;2.30;86.90;;;;;;4984663;28;20047;-50
2021/04/24 04:56:51;;;;;;;18.67;8.38;;;2.30;87.00;;;;;;4986739;28;20050;-51
2021/04/24 04:59:17;;;;;;;17.90;7.93;;;2.30;86.90;;;;;;4990975;28;20612;-53
2021/04/24 05:01:43;;;;;;;20.33;10.15;;;2.20;87.10;;;;;;4990828;28;20082;-51
2021/04/24 05:04:09;;;;;;;19.05;7.45;;;2.20;87.40;;;;;;4985274;28;20127;-50
2021/04/24 05:06:34;;;;;;;17.58;8.40;;;2.20;87.30;;;;;;4990750;28;20057;-50
2021/04/24 05:09:00;;;;;;;20.15;8.48;;;2.30;87.20;;;;;;4985027;28;20120;-49
2021/04/24 05:11:26;;;;;;;16.65;7.45;;;2.30;87.50;;;;;;4989230;28;20768;-51
2021/04/24 05:13:51;;;;;;;10.35;4.75;;;2.30;87.90;;;;;;4987454;28;20038;-53
2021/04/24 05:16:17;;;;;;;12.35;5.80;;;2.40;87.50;;;;;;4988201;28;20061;-48
2021/04/24 05:18:43;;;;;;;10.85;5.35;;;2.50;87.50;;;;;;4991996;28;20541;-49
2021/04/24 05:21:09;;;;;;;8.68;5.18;;;2.50;87.40;;;;;;4989532;28;20054;-51
2021/04/24 05:23:35;;;;;;;10.82;6.35;;;2.60;87.50;;;;;;4977852;28;20047;-49
2021/04/24 05:26:00;;;;;;;15.13;7.93;;;2.60;87.40;;;;;;4991252;28;20072;-49
2021/04/24 05:28:26;;;;;;;18.60;8.77;;;2.80;87.10;;;;;;4982473;28;20548;-49
2021/04/24 05:30:52;;;;;;;15.05;7.65;;;2.80;86.40;;;;;;4983725;28;20440;-51
2021/04/24 05:33:17;;;;;;;22.10;8.77;;;2.90;86.70;;;;;;4982594;28;20053;-49
2021/04/24 05:35:43;;;;;;;19.35;8.63;;;3.00;86.50;;;;;;4985826;28;20513;-53
2021/04/24 05:38:09;;;;;;;18.58;8.45;;;3.10;86.30;;;;;;4988133;28;20456;-51
2021/04/24 05:40:35;;;;;;;16.17;8.23;;;3.20;86.40;;;;;;4983368;28;20483;-49
2021/04/24 05:43:00;;;;;;;16.85;8.43;;;3.40;86.10;;;;;;4987242;28;20042;-52
2021/04/24 05:45:26;;;;;;;18.98;8.75;;;3.60;85.50;;;;;;4987809;28;20041;-52
2021/04/24 05:47:53;;;;;;;17.30;8.45;;;3.80;85.40;;;;;;4984335;28;20183;-49
2021/04/24 05:50:21;;;;;;;18.45;7.60;;;4.00;84.60;;;;;;4982779;28;20050;-51
2021/04/24 05:52:46;;;;;;;18.20;8.65;;;4.20;84.20;;;;;;4981719;28;20129;-52
2021/04/24 05:55:13;;;;;;;20.38;8.55;;;4.30;83.50;;;;;;4977753;28;20125;-48
2021/04/24 05:57:39;;;;;;;17.85;9.05;;;4.40;83.20;;;;;;4985935;28;20042;-48
2021/04/24 06:00:12;;;;;;;17.50;9.05;;;4.70;82.70;;;;;;4986382;28;20050;-48
2021/04/24 06:02:38;;;;;;;16.58;8.60;;;4.90;82.20;;;;;;4985349;28;20049;-48
2021/04/24 06:05:05;;;;;;;20.55;8.68;;;5.20;81.60;;;;;;4988945;28;20039;-49
2021/04/24 06:07:31;;;;;;;20.08;9.10;;;5.30;81.60;;;;;;4983100;28;20030;-48
2021/04/24 06:09:57;;;;;;;18.15;9.05;;;5.50;81.40;;;;;;4984278;28;20047;-52
2021/04/24 06:12:22;;;;;;;16.65;8.40;;;5.60;80.90;;;;;;4989425;28;20038;-48
2021/04/24 06:14:48;;;;;;;16.80;8.75;;;5.70;80.80;;;;;;4968616;28;20054;-49
2021/04/24 06:17:14;;;;;;;18.52;8.68;;;5.90;80.60;;;;;;4989100;28;20065;-49
2021/04/24 06:19:39;;;;;;;17.50;8.57;;;6.10;80.50;;;;;;4987720;28;20422;-53
2021/04/24 06:22:05;;;;;;;19.02;8.95;;;6.40;80.30;;;;;;4995160;28;20038;-52
2021/04/24 06:24:32;;;;;;;22.65;8.93;;;6.40;80.30;;;;;;4990838;28;20060;-55
2021/04/24 06:26:59;;;;;;;20.33;9.27;;;6.40;81.10;;;;;;4980869;28;20049;-52
2021/04/24 06:29:25;;;;;;;19.15;8.60;;;6.50;82.20;;;;;;4981190;28;20060;-51
2021/04/24 06:31:51;;;;;;;18.58;9.35;;;6.50;83.00;;;;;;4982425;28;20461;-51
2021/04/24 06:34:17;;;;;;;18.15;8.20;;;6.60;82.80;;;;;;4978869;28;20104;-51
2021/04/24 06:36:42;;;;;;;16.58;8.43;;;6.80;83.40;;;;;;4978294;28;20047;-50
2021/04/24 06:39:08;;;;;;;18.38;8.75;;;6.90;83.30;;;;;;4978573;28;20059;-50
2021/04/24 06:41:35;;;;;;;20.35;8.38;;;7.00;83.20;;;;;;4990082;28;20065;-49
2021/04/24 06:44:01;;;;;;;21.75;8.02;;;7.20;83.40;;;;;;4988250;28;20042;-49
2021/04/24 06:46:27;;;;;;;22.65;7.72;;;7.30;82.70;;;;;;4986117;28;20038;-49
2021/04/24 06:48:53;;;;;;;15.88;8.13;;;7.40;82.30;;;;;;4990517;28;20045;-54
2021/04/24 06:51:19;;;;;;;21.30;8.63;;;7.50;82.30;;;;;;4980248;28;20047;-52
2021/04/24 06:53:44;;;;;;;18.67;7.95;;;7.50;82.10;;;;;;4984703;28;20438;-50
2021/04/24 06:56:10;;;;;;;15.48;8.20;;;7.60;81.80;;;;;;4979844;28;20047;-51
2021/04/24 06:58:35;;;;;;;23.20;8.13;;;7.70;81.20;;;;;;4986355;28;20053;-50
2021/04/24 07:01:01;;;;;;;17.92;7.72;;;7.80;81.10;;;;;;4983990;28;20648;-53
2021/04/24 07:03:32;;;;;;;16.80;7.93;;;7.90;81.00;;;;;;4981688;28;20047;-52
2021/04/24 07:05:58;;;;;;;17.70;8.32;;;8.00;80.70;;;;;;4988702;28;20057;-54
2021/04/24 07:08:24;;;;;;;17.80;8.35;;;8.10;80.60;;;;;;4979233;28;20038;-51
2021/04/24 07:10:50;;;;;;;18.92;8.38;;;8.20;80.40;;;;;;4984995;28;20038;-53
2021/04/24 07:13:15;;;;;;;15.20;7.88;;;8.40;79.90;;;;;;4986547;28;20049;-53
2021/04/24 07:15:41;;;;;;;17.02;8.07;;;8.40;78.90;;;;;;4984583;28;20150;-50
2021/04/24 07:18:06;;;;;;;15.55;7.47;;;8.40;78.80;;;;;;4991109;28;20048;-50
2021/04/24 07:20:33;;;;;;;11.93;7.28;;;8.50;78.70;;;;;;4994328;28;20034;-52
2021/04/24 07:23:01;;;;;;;13.93;8.07;;;8.60;78.00;;;;;;4989494;28;20111;-52
2021/04/24 07:25:27;;;;;;;14.63;7.13;;;8.70;77.50;;;;;;4993473;28;20058;-52
2021/04/24 07:27:52;;;;;;;19.67;8.25;;;8.70;77.20;;;;;;4992210;28;20116;-51
2021/04/24 07:30:19;;;;;;;13.18;6.32;;;8.70;78.40;;;;;;4991015;28;20421;-51
2021/04/24 07:32:45;;;;;;;11.43;5.53;;;8.60;75.80;;;;;;4991233;28;20054;-50
2021/04/24 07:35:11;;;;;;;13.88;4.72;;;8.60;75.80;;;;;;4982974;28;20525;-53
2021/04/24 07:37:37;;;;;;;12.93;5.43;;;8.60;74.50;;;;;;4991964;28;20046;-50
2021/04/24 07:40:05;;;;;;;11.73;5.18;;;8.60;73.60;;;;;;4988150;28;20100;-51
2021/04/24 07:42:31;;;;;;;12.10;5.35;;;8.60;74.00;;;;;;4987690;28;20551;-50
2021/04/24 07:44:58;;;;;;;14.45;5.45;;;8.70;72.20;;;;;;4988553;28;20042;-54
2021/04/24 07:47:24;;;;;;;12.65;5.75;;;8.70;73.60;;;;;;5015687;28;20079;-50
2021/04/24 07:49:52;;;;;;;12.48;5.53;;;8.70;72.50;;;;;;4998051;28;20051;-51
2021/04/24 07:52:19;;;;;;;13.07;5.80;;;8.70;71.50;;;;;;4992231;28;20043;-50
2021/04/24 07:54:45;;;;;;;11.73;5.18;;;8.60;71.50;;;;;;4990902;28;20422;-51
2021/04/24 07:57:19;;;;;;;9.68;4.78;;;8.60;71.00;;;;;;4991823;28;20080;-50
2021/04/24 07:59:45;;;;;;;12.88;5.28;;;8.50;71.20;;;;;;4993364;28;20130;-53
2021/04/24 08:02:14;;;;;;;12.52;5.07;;;8.50;71.40;;;;;;4991466;28;20092;-49
2021/04/24 08:04:41;;;;;;;14.65;5.18;;;8.50;72.00;;;;;;4991769;28;20042;-50
2021/04/24 08:07:10;;;;;;;13.57;5.20;;;8.70;69.40;;;;;;4991110;28;20049;-50
2021/04/24 08:09:36;;;;;;;11.75;5.32;;;8.90;69.50;;;;;;4971531;28;20039;-48
2021/04/24 08:12:03;;;;;;;11.95;5.38;;;8.80;69.60;;;;;;4989833;28;20058;-49
2021/04/24 08:14:28;;;;;;;12.50;4.55;;;8.80;68.40;;;;;;4983643;28;20060;-49
2021/04/24 08:16:54;;;;;;;14.40;4.75;;;9.00;67.60;;;;;;4982422;28;20042;-50
2021/04/24 08:19:21;;;;;;;13.30;5.22;;;9.10;68.10;;;;;;4984861;28;20042;-50
2021/04/24 08:21:48;;;;;;;13.80;5.13;;;9.20;68.70;;;;;;4989070;28;20043;-52
2021/04/24 08:24:14;;;;;;;14.35;5.53;;;9.40;66.90;;;;;;4935160;28;20096;-49
2021/04/24 08:26:41;;;;;;;9.50;4.53;;;9.60;68.20;;;;;;4981585;28;20487;-49
2021/04/24 08:29:07;;;;;;;11.52;4.43;;;9.80;68.60;;;;;;4977144;28;20053;-48
2021/04/24 08:31:34;;;;;;;13.02;4.40;;;9.90;63.40;;;;;;4983722;28;20070;-53
2021/04/24 08:34:00;;;;;;;16.20;5.10;;;10.00;63.80;;;;;;4989256;28;20077;-54
2021/04/24 08:36:26;;;;;;;9.57;4.30;;;10.00;64.20;;;;;;4980908;28;20103;-54
2021/04/24 08:38:52;;;;;;;11.57;4.35;;;10.10;61.90;;;;;;4982024;28;20048;-49
2021/04/24 08:41:18;;;;;;;11.45;4.85;;;10.30;62.80;;;;;;5017684;28;20398;-52
2021/04/24 08:43:44;;;;;;;12.38;5.07;;;10.40;63.40;;;;;;4974571;28;20117;-55
2021/04/24 08:46:14;;;;;;;11.18;4.80;;;10.50;64.20;;;;;;4966910;28;20073;-53
2021/04/24 08:48:40;;;;;;;13.52;4.50;;;10.50;62.90;;;;;;4979807;28;20042;-53
2021/04/24 08:51:06;;;;;;;12.02;4.45;;;10.60;61.10;;;;;;4989420;28;20049;-54
2021/04/24 08:53:32;;;;;;;10.85;4.70;;;10.70;59.70;;;;;;4988055;28;20038;-51
2021/04/24 08:55:58;;;;;;;13.90;4.43;;;10.70;61.20;;;;;;4989986;28;20072;-51
2021/04/24 08:58:24;;;;;;;13.98;4.38;;;10.80;61.50;;;;;;4991441;28;20039;-50
2021/04/24 09:00:52;;;;;;;10.63;3.95;;;10.90;61.50;;;;;;4953681;28;20406;-51
2021/04/24 09:03:21;;;;;;;10.60;4.32;;;11.00;58.00;;;;;;4985475;28;20426;-51
2021/04/24 09:05:51;;;;;;;23.63;5.22;;;10.80;59.80;;;;;;4966317;28;20053;-52
2021/04/24 09:08:28;;;;;;;13.35;5.65;;;10.50;60.10;;;;;;4976805;28;20043;-52
2021/04/24 09:11:03;;;;;;;12.38;5.22;;;10.60;61.70;;;;;;4990004;28;20053;-55
2021/04/24 09:13:30;;;;;;;11.10;5.20;;;10.70;61.90;;;;;;4990889;28;20485;-52
2021/04/24 09:15:57;;;;;;;8.93;4.07;;;10.80;61.60;;;;;;4987557;28;20065;-51
2021/04/24 09:18:25;;;;;;;11.40;4.35;;;11.10;60.60;;;;;;4981464;28;20039;-49
2021/04/24 09:20:52;;;;;;;10.30;4.10;;;11.20;57.80;;;;;;4988869;28;20399;-53
2021/04/24 09:23:23;;;;;;;12.32;4.32;;;11.30;56.30;;;;;;4980462;28;20391;-51
2021/04/24 09:25:57;;;;;;;12.27;4.20;;;11.40;55.60;;;;;;4975424;28;20066;-53
2021/04/24 09:28:30;;;;;;;12.15;4.05;;;11.40;54.60;;;;;;4989190;28;20042;-50
2021/04/24 09:31:00;;;;;;;11.13;4.07;;;11.30;54.60;;;;;;4983328;28;20553;-51
2021/04/24 09:33:34;;;;;;;10.02;4.22;;;11.30;55.90;;;;;;4969554;28;20436;-49
2021/04/24 09:36:00;;;;;;;13.02;4.57;;;11.40;56.10;;;;;;4967753;28;20057;-53
2021/04/24 09:38:32;;;;;;;13.13;4.57;;;11.50;56.90;;;;;;4979432;28;20615;-53
2021/04/24 09:41:06;;;;;;;11.63;4.43;;;11.50;56.30;;;;;;4984197;28;20049;-52
2021/04/24 09:43:55;;;;;;;10.82;4.53;;;11.60;55.90;;;;;;4988789;28;20030;-53
2021/04/24 09:46:26;;;;;;;9.48;4.18;;;11.60;55.60;;;;;;4988383;28;20398;-51
2021/04/24 09:49:07;;;;;;;10.55;4.40;;;11.70;56.50;;;;;;4973314;28;20126;-50
2021/04/24 09:51:42;;;;;;;10.70;4.78;;;11.60;55.90;;;;;;4989242;28;20046;-52
2021/04/24 09:54:09;;;;;;;13.20;4.03;;;11.70;56.20;;;;;;4971549;28;20042;-49
2021/04/24 09:56:36;;;;;;;10.73;3.65;;;11.70;55.10;;;;;;4982098;28;20525;-51
2021/04/24 09:59:06;;;;;;;11.68;3.83;;;11.70;54.30;;;;;;4986259;28;20520;-49
2021/04/24 10:01:33;;;;;;;12.77;4.13;;;11.60;54.30;;;;;;4961649;28;20043;-50
2021/04/24 10:04:01;;;;;;;10.80;3.45;;;11.70;54.10;;;;;;4988621;28;20092;-49
2021/04/24 10:06:32;;;;;;;10.38;3.65;;;11.70;53.40;;;;;;4988584;28;20368;-52
2021/04/24 10:09:16;;;;;;;9.50;3.20;;;12.00;52.00;;;;;;4988214;28;20046;-52
2021/04/24 10:11:44;;;;;;;9.43;3.63;;;12.10;51.30;;;;;;4977704;28;20100;-54
2021/04/24 10:14:10;;;;;;;10.40;3.75;;;12.10;50.90;;;;;;4988243;28;20070;-55
2021/04/24 10:16:43;;;;;;;10.75;3.53;;;12.10;48.70;;;;;;4985263;28;20096;-55
2021/04/24 10:19:16;;;;;;;6.50;3.22;;;12.10;49.80;;;;;;4988754;28;20182;-50
2021/04/24 10:21:42;;;;;;;;;;;12.10;49.20;;;;;;4989219;28;20468;-51
2021/04/24 10:24:10;;;;;;;9.35;3.50;;;12.20;50.70;;;;;;4987972;28;19925;-51
2021/04/24 10:26:37;;;;;;;9.55;3.75;;;12.30;48.70;;;;;;4988069;28;20046;-52
2021/04/24 10:29:05;;;;;;;10.82;3.40;;;12.30;50.20;;;;;;4988766;28;20130;-53
2021/04/24 10:31:32;;;;;;;14.00;3.67;;;12.30;51.00;;;;;;4978463;28;20456;-52
2021/04/24 10:34:04;;;;;;;8.68;3.17;;;12.30;50.90;;;;;;4989495;28;20452;-48
2021/04/24 10:36:32;;;;;;;9.35;3.05;;;12.40;49.60;;;;;;4988161;28;20126;-51
2021/04/24 10:38:59;;;;;;;8.27;2.75;;;12.40;47.40;;;;;;4989325;28;20062;-51
2021/04/24 10:41:38;;;;;;;8.60;2.90;;;12.50;45.80;;;;;;4987235;28;20046;-53
2021/04/24 10:44:16;;;;;;;10.10;3.20;;;12.50;45.30;;;;;;4988071;28;20046;-54
2021/04/24 10:46:48;;;;;;;9.07;3.03;;;12.50;45.40;;;;;;4984722;28;20042;-51
2021/04/24 10:49:25;;;;;;;7.10;2.90;;;12.50;46.50;;;;;;4987441;28;20043;-53
2021/04/24 10:51:52;;;;;;;10.00;3.00;;;12.50;48.10;;;;;;5058590;28;20426;-55
2021/04/24 10:54:18;;;;;;;13.70;3.15;;;12.40;46.20;;;;;;4992153;28;20038;-52
2021/04/24 10:56:43;;;;;;;8.95;3.20;;;12.40;46.70;;;;;;4992449;28;20104;-54
2021/04/24 10:59:32;;;;;;;8.27;3.38;;;12.50;47.50;;;;;;4988488;28;20051;-52
2021/04/24 11:02:05;;;;;;;10.52;3.10;;;12.60;48.20;;;;;;4986682;28;20053;-52
2021/04/24 11:04:52;;;;;;;8.93;2.78;;;12.60;46.80;;;;;;4987688;28;20133;-51
2021/04/24 11:07:27;;;;;;;8.77;2.60;;;12.60;46.20;;;;;;4965691;28;20062;-52
2021/04/24 11:10:11;;;;;;;5.85;2.10;;;12.40;45.60;;;;;;4990464;28;20066;-54
2021/04/24 11:12:45;;;;;;;8.18;2.67;;;12.50;44.40;;;;;;4978450;28;20039;-52
2021/04/24 11:15:18;;;;;;;5.95;3.00;;;12.40;45.00;;;;;;4980480;28;20402;-50
2021/04/24 11:17:45;;;;;;;5.80;2.22;;;12.40;43.20;;;;;;4989567;28;20042;-50
2021/04/24 11:20:11;;;;;;;6.18;2.00;;;12.50;41.50;;;;;;4991782;28;20042;-49
2021/04/24 11:22:38;;;;;;;6.75;2.45;;;12.60;42.60;;;;;;4991436;28;20046;-50
2021/04/24 11:25:20;;;;;;;6.70;2.20;;;12.50;42.70;;;;;;4989959;28;20121;-53
2021/04/24 11:28:13;;;;;;;11.23;2.70;;;12.50;44.50;;;;;;4989843;28;20043;-51
2021/04/24 11:31:00;;;;;;;6.35;2.10;;;12.50;45.60;;;;;;4982317;28;20117;-50
2021/04/24 11:33:37;;;;;;;6.55;2.20;;;12.60;42.90;;;;;;4978523;28;20049;-51
2021/04/24 11:36:16;;;;;;;7.32;2.38;;;12.60;42.90;;;;;;4990031;28;20478;-53
2021/04/24 11:38:57;;;;;;;8.25;2.80;;;12.50;43.50;;;;;;4977899;28;20057;-53
2021/04/24 11:41:40;;;;;;;6.38;2.55;;;12.70;44.20;;;;;;4991177;28;20129;-52
2021/04/24 11:44:09;;;;;;;7.90;2.40;;;12.90;44.00;;;;;;4991098;28;20057;-49
2021/04/24 11:46:39;;;;;;;7.45;2.08;;;12.90;44.50;;;;;;4976445;28;20039;-53
2021/04/24 11:49:16;;;;;;;6.03;1.92;;;13.00;43.20;;;;;;4986819;28;20092;-51
2021/04/24 11:52:06;;;;;;;7.15;2.17;;;13.00;41.70;;;;;;4983916;28;20050;-55
2021/04/24 11:54:44;;;;;;;6.88;1.95;;;13.10;40.30;;;;;;4989755;28;20057;-53
2021/04/24 11:57:12;;;;;;;6.53;1.90;;;13.30;38.90;;;;;;4991281;28;20038;-52
2021/04/24 11:59:42;;;;;;;3.67;1.63;;;13.30;41.00;;;;;;4989632;28;20046;-50
2021/04/24 12:02:19;;;;;;;5.03;1.77;;;13.30;39.20;;;;;;4990537;28;20418;-52
2021/04/24 12:04:49;;;;;;;5.25;1.77;;;13.50;39.00;;;;;;4990321;28;20049;-52
2021/04/24 12:07:17;;;;;;;4.35;1.58;;;13.50;38.50;;;;;;4986203;28;20035;-53
2021/04/24 12:09:51;;;;;;;5.72;1.83;;;13.50;38.10;;;;;;5001552;28;20507;-51
2021/04/24 12:12:37;;;;;;;4.80;1.75;;;13.50;37.90;;;;;;4990759;28;20046;-53
2021/04/24 12:15:11;;;;;;;5.05;1.80;;;13.50;38.30;;;;;;4979551;28;20510;-50
2021/04/24 12:17:57;;;;;;;3.22;1.38;;;13.40;38.30;;;;;;4991573;28;20045;-54
2021/04/24 12:20:35;;;;;;;3.97;1.80;;;13.40;38.70;;;;;;4991144;28;20462;-53
2021/04/24 12:23:07;;;;;;;6.68;2.20;;;13.40;39.00;;;;;;4991516;28;20395;-53
2021/04/24 12:25:36;;;;;;;5.35;2.08;;;13.30;39.10;;;;;;4988120;28;20030;-54
2021/04/24 12:28:08;;;;;;;7.47;1.98;;;13.30;38.90;;;;;;4972455;28;20039;-51
2021/04/24 12:30:37;;;;;;;7.93;2.20;;;13.20;39.60;;;;;;4985914;28;20118;-55
2021/04/24 12:33:03;;;;;;;6.82;2.35;;;13.20;40.70;;;;;;4982630;28;20053;-54
2021/04/24 12:35:34;;;;;;;8.45;1.90;;;13.10;41.40;;;;;;4983629;28;20472;-51
2021/04/24 12:38:13;;;;;;;5.60;2.00;;;13.20;40.80;;;;;;4989093;28;20506;-52
2021/04/24 12:40:46;;;;;;;8.73;2.22;;;13.20;40.20;;;;;;4985291;28;20039;-54
2021/04/24 12:43:14;;;;;;;12.75;2.47;;;13.10;42.20;;;;;;4985992;28;20052;-51
2021/04/24 12:45:43;;;;;;;8.23;2.90;;;13.00;43.10;;;;;;4989484;28;20050;-54
2021/04/24 12:48:20;;;;;;;5.65;2.25;;;13.00;42.80;;;;;;4990531;28;20046;-51
2021/04/24 12:50:50;;;;;;;10.63;2.03;;;13.00;41.50;;;;;;4990087;28;20046;-52